createdAt,value
2018-06-18T00:01:56.942Z,4.83
2018-06-18T00:04:23.994Z,4.50
2018-06-18T00:06:51.192Z,3.77
2018-06-18T00:09:18.315Z,4.63
2018-06-18T00:11:45.362Z,3.80
2018-06-18T00:14:12.876Z,4.40
2018-06-18T00:16:39.976Z,4.50
2018-06-18T00:19:07.079Z,3.43
2018-06-18T00:21:34.226Z,4.07
2018-06-18T00:24:01.412Z,3.97
2018-06-18T00:26:28.493Z,4.30
2018-06-18T00:28:55.616Z,4.30
2018-06-18T00:31:22.639Z,4.30
2018-06-18T00:33:49.789Z,4.50
2018-06-18T00:36:16.909Z,4.30
2018-06-18T00:38:43.986Z,3.93
2018-06-18T00:41:11.032Z,4.23
2018-06-18T00:43:38.077Z,4.60
2018-06-18T00:46:05.461Z,4.90
2018-06-18T00:48:32.532Z,4.60
2018-06-18T00:50:59.789Z,5.20
2018-06-18T00:53:26.905Z,4.40
2018-06-18T00:56:06.452Z,5.00
2018-06-18T00:58:33.619Z,4.30
2018-06-18T01:01:00.758Z,4.80
2018-06-18T01:03:27.897Z,4.30
2018-06-18T01:05:55.060Z,5.10
2018-06-18T01:08:22.143Z,5.33
2018-06-18T01:10:49.530Z,5.80
2018-06-18T01:13:16.840Z,4.70
2018-06-18T01:15:44.141Z,5.03
2018-06-18T01:18:11.231Z,4.30
2018-06-18T01:20:38.291Z,5.40
2018-06-18T01:23:41.100Z,5.00
2018-06-18T01:26:08.322Z,5.63
2018-06-18T01:28:35.397Z,5.70
2018-06-18T01:31:02.499Z,5.13
2018-06-18T01:33:29.576Z,5.90
2018-06-18T01:35:56.645Z,5.60
2018-06-18T01:38:23.728Z,5.30
2018-06-18T01:40:51.071Z,5.50
2018-06-18T01:43:18.317Z,5.70
2018-06-18T01:45:45.389Z,6.00
2018-06-18T01:48:12.834Z,5.93
2018-06-18T01:50:39.984Z,5.70
2018-06-18T01:53:07.058Z,5.40
2018-06-18T01:55:34.102Z,5.03
2018-06-18T01:58:01.333Z,5.77
2018-06-18T02:00:28.462Z,5.70
2018-06-18T02:02:56.147Z,5.50
2018-06-18T02:05:23.242Z,6.57
2018-06-18T02:07:50.402Z,5.90
2018-06-18T02:10:17.517Z,5.60
2018-06-18T02:12:44.645Z,6.73
2018-06-18T02:15:11.888Z,5.07
2018-06-18T02:17:39.035Z,5.50
2018-06-18T02:20:06.192Z,4.83
2018-06-18T02:22:33.297Z,5.63
2018-06-18T02:25:00.360Z,5.73
2018-06-18T02:27:33.237Z,4.90
2018-06-18T02:32:10.395Z,5.40
2018-06-18T02:34:43.919Z,5.47
2018-06-18T02:37:16.637Z,5.40
2018-06-18T02:39:49.353Z,5.93
2018-06-18T02:42:16.440Z,6.53
2018-06-18T02:44:43.519Z,5.97
2018-06-18T02:47:10.643Z,6.50
2018-06-18T02:49:37.707Z,5.57
2018-06-18T02:52:05.630Z,6.43
2018-06-18T02:54:32.768Z,5.77
2018-06-18T02:57:03.793Z,6.63
2018-06-18T02:59:30.867Z,6.40
2018-06-18T03:01:58.023Z,6.63
2018-06-18T03:04:25.480Z,7.20
2018-06-18T03:06:52.537Z,6.90
2018-06-18T03:09:19.843Z,6.97
2018-06-18T03:11:46.944Z,6.60
2018-06-18T03:14:14.119Z,7.20
2018-06-18T03:16:41.315Z,6.97
2018-06-18T03:19:14.033Z,6.83
2018-06-18T03:21:46.830Z,6.77
2018-06-18T03:24:19.699Z,7.00
2018-06-18T03:26:52.590Z,7.47
2018-06-18T03:29:21.624Z,7.17
2018-06-18T03:31:49.499Z,6.43
2018-06-18T03:34:16.676Z,7.10
2018-06-18T03:36:44.251Z,6.90
2018-06-18T03:39:12.721Z,7.50
2018-06-18T03:41:41.916Z,6.50
2018-06-18T03:44:11.828Z,6.90
2018-06-18T03:46:38.981Z,6.73
2018-06-18T03:49:06.078Z,6.90
2018-06-18T03:51:33.159Z,7.20
2018-06-18T03:54:00.964Z,6.97
2018-06-18T03:56:28.163Z,6.77
2018-06-18T03:58:55.210Z,7.37
2018-06-18T04:02:01.205Z,7.67
2018-06-18T04:04:38.936Z,7.90
2018-06-18T04:07:11.859Z,7.70
2018-06-18T04:09:44.528Z,8.13
2018-06-18T04:12:11.904Z,6.30
2018-06-18T04:14:38.937Z,7.73
2018-06-18T04:17:07.300Z,6.90
2018-06-18T04:19:34.366Z,6.47
2018-06-18T04:22:01.833Z,7.70
2018-06-18T04:24:28.974Z,7.60
2018-06-18T04:26:56.460Z,7.37
2018-06-18T04:29:23.688Z,6.93
2018-06-18T04:31:51.869Z,7.27
2018-06-18T04:34:25.709Z,7.73
2018-06-18T04:36:52.831Z,6.93
2018-06-18T04:39:19.920Z,7.23
2018-06-18T04:41:52.752Z,7.40
2018-06-18T04:44:25.513Z,7.30
2018-06-18T04:46:58.343Z,7.70
2018-06-18T04:49:31.023Z,7.10
2018-06-18T04:51:58.112Z,7.77
2018-06-18T04:54:25.289Z,7.63
2018-06-18T04:56:52.365Z,7.83
2018-06-18T04:59:19.802Z,8.10
2018-06-18T05:01:47.009Z,7.70
2018-06-18T05:04:14.396Z,7.00
2018-06-18T05:06:41.449Z,8.13
2018-06-18T05:09:21.181Z,7.60
2018-06-18T05:11:48.235Z,8.60
2018-06-18T05:14:15.450Z,8.50
2018-06-18T05:16:42.600Z,8.20
2018-06-18T05:19:10.281Z,7.57
2018-06-18T05:21:37.433Z,7.77
2018-06-18T05:24:05.197Z,7.83
2018-06-18T05:26:33.588Z,8.33
2018-06-18T05:29:00.735Z,8.37
2018-06-18T05:31:27.887Z,8.03
2018-06-18T05:33:55.464Z,7.90
2018-06-18T05:36:22.619Z,8.00
2018-06-18T05:38:49.774Z,7.80
2018-06-18T05:41:16.893Z,8.07
2018-06-18T05:43:43.969Z,8.50
2018-06-18T05:46:11.044Z,6.70
2018-06-18T05:48:38.523Z,7.23
2018-06-18T05:51:05.644Z,6.10
2018-06-18T05:53:33.482Z,5.60
2018-06-18T05:56:00.693Z,5.20
2018-06-18T05:58:28.123Z,6.43
2018-06-18T06:00:55.251Z,8.83
2018-06-18T06:03:23.572Z,6.40
2018-06-18T06:05:50.775Z,6.47
2018-06-18T06:08:18.782Z,7.13
2018-06-18T06:10:46.157Z,6.70
2018-06-18T06:13:14.031Z,6.93
2018-06-18T06:15:41.343Z,6.67
2018-06-18T06:18:08.615Z,6.40
2018-06-18T06:20:43.472Z,8.50
2018-06-18T06:23:10.733Z,7.60
2018-06-18T06:25:37.983Z,7.87
2018-06-18T06:28:05.068Z,7.00
2018-06-18T06:30:32.336Z,7.50
2018-06-18T06:32:59.521Z,8.23
2018-06-18T06:35:29.243Z,7.33
2018-06-18T06:37:56.533Z,8.10
2018-06-18T06:40:24.273Z,7.70
2018-06-18T06:42:51.485Z,7.53
2018-06-18T06:45:18.735Z,8.40
2018-06-18T06:47:45.928Z,7.20
2018-06-18T06:50:14.001Z,6.60
2018-06-18T06:52:41.180Z,6.70
2018-06-18T06:55:08.388Z,6.30
2018-06-18T06:57:35.588Z,6.93
2018-06-18T07:00:03.254Z,5.50
2018-06-18T07:02:30.736Z,5.20
2018-06-18T07:04:57.816Z,7.20
2018-06-18T07:07:25.042Z,6.27
2018-06-18T07:09:52.333Z,5.50
2018-06-18T07:12:19.412Z,5.63
2018-06-18T07:14:46.492Z,5.67
2018-06-18T07:17:13.583Z,5.60
2018-06-18T07:19:40.735Z,5.87
2018-06-18T07:22:07.820Z,5.70
2018-06-18T07:24:34.896Z,5.13
2018-06-18T07:27:02.035Z,5.30
2018-06-18T07:29:29.339Z,5.30
2018-06-18T07:31:56.466Z,5.80
2018-06-18T07:34:23.607Z,5.27
2018-06-18T07:36:50.664Z,5.73
2018-06-18T07:39:18.471Z,5.10
2018-06-18T07:41:45.764Z,4.80
2018-06-18T07:44:13.571Z,5.70
2018-06-18T07:46:40.683Z,5.43
2018-06-18T07:49:08.460Z,5.10
2018-06-18T07:51:35.703Z,5.33
2018-06-18T07:54:02.737Z,5.10
2018-06-18T07:56:30.189Z,5.40
2018-06-18T07:58:57.310Z,5.10
2018-06-18T08:01:24.496Z,5.60
2018-06-18T08:03:51.810Z,6.00
2018-06-18T08:06:18.897Z,4.97
2018-06-18T08:08:45.997Z,5.07
2018-06-18T08:27:52.113Z,5.20
2018-06-18T08:30:19.254Z,5.30
2018-06-18T08:32:46.387Z,5.33
2018-06-18T08:35:13.519Z,5.33
2018-06-18T08:37:40.656Z,4.90
2018-06-18T08:40:07.718Z,5.03
2018-06-18T08:42:35.741Z,5.87
2018-06-18T08:45:02.790Z,5.57
2018-06-18T08:47:29.873Z,5.43
2018-06-18T08:50:02.660Z,4.80
2018-06-18T08:52:35.344Z,4.40
2018-06-18T08:55:08.189Z,5.40
2018-06-18T08:57:41.077Z,4.97
2018-06-18T09:00:13.745Z,5.30
2018-06-18T09:02:52.306Z,5.10
2018-06-18T09:05:25.768Z,6.07
2018-06-18T09:07:53.101Z,6.23
2018-06-18T09:10:20.286Z,6.60
2018-06-18T09:12:48.848Z,5.47
2018-06-18T09:15:15.922Z,5.60
2018-06-18T09:17:43.021Z,5.40
2018-06-18T09:20:10.227Z,5.27
2018-06-18T09:22:37.381Z,5.30
2018-06-18T09:25:04.793Z,4.90
2018-06-18T09:27:31.860Z,5.13
2018-06-18T09:30:10.465Z,5.40
2018-06-18T09:32:37.885Z,4.80
2018-06-18T09:35:04.999Z,4.90
2018-06-18T09:37:32.192Z,4.70
2018-06-18T09:39:59.335Z,4.10
2018-06-18T09:42:27.254Z,5.10
2018-06-18T09:44:54.414Z,4.40
2018-06-18T09:47:21.538Z,4.77
2018-06-18T09:49:54.216Z,4.70
2018-06-18T09:52:27.025Z,4.80
2018-06-18T09:54:59.831Z,4.70
2018-06-18T09:57:32.687Z,4.80
2018-06-18T10:00:07.952Z,4.80
2018-06-18T10:02:35.283Z,4.60
2018-06-18T10:05:02.491Z,4.40
2018-06-18T10:07:30.573Z,4.30
2018-06-18T10:09:58.661Z,4.90
2018-06-18T10:12:26.660Z,4.77
2018-06-18T10:14:54.442Z,3.90
2018-06-18T10:17:21.673Z,4.50
2018-06-18T10:19:49.828Z,4.10
2018-06-18T10:22:17.508Z,4.30
2018-06-18T10:24:45.885Z,4.30
2018-06-18T10:27:13.143Z,4.13
2018-06-18T10:29:40.263Z,4.00
2018-06-18T10:32:13.105Z,4.17
2018-06-18T10:34:46.009Z,4.40
2018-06-18T10:37:19.235Z,5.50
2018-06-18T10:39:52.052Z,4.77
2018-06-18T10:42:24.938Z,4.00
2018-06-18T10:44:52.599Z,4.10
2018-06-18T10:47:19.741Z,4.83
2018-06-18T10:49:47.257Z,4.17
2018-06-18T10:52:14.404Z,4.67
2018-06-18T10:54:41.682Z,3.73
2018-06-18T10:57:08.868Z,5.23
2018-06-18T10:59:36.479Z,3.90
2018-06-18T11:02:04.582Z,4.70
2018-06-18T11:04:31.832Z,3.80
2018-06-18T11:07:02.736Z,4.60
2018-06-18T11:09:30.164Z,4.93
2018-06-18T11:11:57.419Z,4.17
2018-06-18T11:31:10.054Z,4.60
2018-06-18T11:33:37.134Z,4.17
2018-06-18T11:36:05.301Z,4.30
2018-06-18T11:38:32.556Z,4.03
2018-06-18T11:40:59.698Z,4.27
2018-06-18T11:43:26.785Z,4.00
2018-06-18T11:45:53.888Z,4.10
2018-06-18T11:48:21.557Z,4.70
2018-06-18T11:50:49.184Z,4.07
2018-06-18T11:53:16.861Z,4.00
2018-06-18T11:55:43.942Z,4.90
2018-06-18T11:58:11.336Z,4.07
2018-06-18T12:00:44.037Z,4.30
2018-06-18T12:03:16.809Z,4.17
2018-06-18T12:05:49.510Z,3.70
2018-06-18T12:08:22.286Z,4.57
2018-06-18T12:10:50.444Z,4.77
2018-06-18T12:13:17.653Z,3.87
2018-06-18T12:15:45.479Z,3.90
2018-06-18T12:18:13.014Z,4.00
2018-06-18T12:20:40.153Z,3.70
2018-06-18T12:23:07.289Z,3.70
2018-06-18T12:25:34.393Z,4.00
2018-06-18T12:28:01.558Z,3.40
2018-06-18T12:30:28.616Z,3.30
2018-06-18T12:32:56.214Z,3.17
2018-06-18T12:35:23.374Z,3.40
2018-06-18T12:37:50.449Z,3.33
2018-06-18T12:40:17.596Z,3.53
2018-06-18T12:42:44.708Z,3.83
2018-06-18T12:45:19.540Z,3.40
2018-06-18T12:47:52.544Z,3.77
2018-06-18T12:50:25.058Z,3.20
2018-06-18T12:52:57.986Z,3.20
2018-06-18T12:55:30.874Z,3.47
2018-06-18T12:57:57.988Z,3.47
2018-06-18T13:00:25.136Z,3.70
2018-06-18T13:02:55.407Z,3.30
2018-06-18T13:05:22.560Z,4.00
2018-06-18T13:07:49.650Z,3.43
2018-06-18T13:10:16.783Z,3.73
2018-06-18T13:12:44.313Z,4.00
2018-06-18T13:15:11.499Z,4.00
2018-06-18T13:17:38.607Z,3.73
2018-06-18T13:20:05.738Z,3.80
2018-06-18T13:22:32.857Z,4.40
2018-06-18T13:25:00.153Z,4.63
2018-06-18T13:27:32.965Z,3.97
2018-06-18T13:30:00.179Z,3.90
2018-06-18T13:32:27.227Z,3.90
2018-06-18T13:34:54.236Z,4.13
2018-06-18T13:37:27.101Z,4.57
2018-06-18T13:40:00.065Z,4.40
2018-06-18T13:42:32.978Z,4.73
2018-06-18T13:45:05.885Z,4.10
2018-06-18T13:47:39.313Z,3.90
2018-06-18T13:50:06.448Z,4.17
2018-06-18T13:52:33.650Z,4.03
2018-06-18T13:55:01.347Z,4.00
2018-06-18T13:57:28.443Z,3.90
2018-06-18T13:59:55.541Z,4.93
2018-06-18T14:02:22.624Z,4.00
2018-06-18T14:04:49.772Z,4.87
2018-06-18T14:07:17.467Z,4.40
2018-06-18T14:09:45.060Z,4.40
2018-06-18T14:12:13.425Z,4.50
2018-06-18T14:31:28.937Z,4.00
2018-06-18T14:34:01.634Z,3.70
2018-06-18T14:36:34.680Z,3.67
2018-06-18T14:39:07.649Z,4.10
2018-06-18T14:41:34.740Z,4.57
2018-06-18T14:44:02.966Z,4.57
2018-06-18T14:46:30.074Z,3.90
2018-06-18T14:48:57.305Z,4.17
2018-06-18T14:51:24.510Z,4.00
2018-06-18T14:53:51.755Z,4.27
2018-06-18T14:56:26.644Z,4.40
2018-06-18T14:59:03.636Z,4.10
2018-06-18T15:01:30.720Z,4.90
2018-06-18T15:03:57.959Z,4.47
2018-06-18T15:06:25.136Z,4.13
2018-06-18T15:08:52.364Z,4.00
2018-06-18T15:11:19.555Z,4.70
2018-06-18T15:13:46.928Z,3.83
2018-06-18T15:16:19.654Z,4.20
2018-06-18T15:18:46.811Z,3.50
2018-06-18T15:21:13.940Z,4.30
2018-06-18T15:23:41.753Z,4.20
2018-06-18T15:26:09.672Z,3.90
2018-06-18T15:28:36.858Z,4.53
2018-06-18T15:31:04.122Z,3.83
2018-06-18T15:33:31.295Z,4.20
2018-06-18T15:35:58.476Z,3.80
2018-06-18T15:38:25.956Z,4.00
2018-06-18T15:40:53.118Z,3.50
2018-06-18T15:43:20.563Z,3.70
2018-06-18T15:45:47.735Z,3.90
2018-06-18T15:48:15.311Z,4.00
2018-06-18T15:50:46.333Z,3.30
2018-06-18T15:53:13.506Z,3.50
2018-06-18T15:55:40.681Z,4.10
2018-06-18T15:58:08.750Z,3.43
2018-06-18T16:00:35.938Z,3.70
2018-06-18T16:03:03.693Z,4.40
2018-06-18T16:05:30.900Z,4.40
2018-06-18T16:07:58.617Z,4.20
2018-06-18T16:10:26.938Z,3.90
2018-06-18T16:12:54.357Z,4.60
2018-06-18T16:15:21.468Z,4.23
2018-06-18T16:17:48.643Z,4.50
2018-06-18T16:20:16.044Z,3.80
2018-06-18T16:22:43.149Z,4.83
2018-06-18T16:25:10.236Z,4.37
2018-06-18T16:27:37.509Z,4.37
2018-06-18T16:30:04.752Z,4.10
2018-06-18T16:32:31.974Z,4.23
2018-06-18T16:34:59.120Z,4.53
2018-06-18T16:37:26.441Z,4.27
2018-06-18T16:39:53.904Z,4.00
2018-06-18T16:42:21.107Z,3.70
2018-06-18T16:44:48.205Z,4.47
2018-06-18T16:47:15.409Z,5.50
2018-06-18T16:49:43.229Z,4.20
2018-06-18T16:52:10.490Z,4.07
2018-06-18T16:54:37.959Z,4.20
2018-06-18T16:57:05.466Z,3.93
2018-06-18T16:59:33.137Z,3.90
2018-06-18T17:02:00.345Z,4.20
2018-06-18T17:04:27.628Z,4.57
2018-06-18T17:06:54.876Z,4.13
2018-06-18T17:09:22.449Z,4.07
2018-06-18T17:11:50.300Z,5.03
2018-06-18T17:14:17.423Z,5.07
2018-06-18T17:16:44.599Z,5.53
2018-06-18T17:19:15.015Z,4.10
2018-06-18T17:21:42.246Z,4.17
2018-06-18T17:24:09.972Z,4.40
2018-06-18T17:26:37.264Z,4.53
2018-06-18T17:29:04.474Z,4.93
2018-06-18T17:31:31.726Z,3.80
2018-06-18T17:33:59.588Z,4.50
2018-06-18T17:36:26.898Z,3.90
2018-06-18T17:38:54.073Z,4.23
2018-06-18T17:41:21.215Z,4.30
2018-06-18T17:43:48.973Z,4.40
2018-06-18T17:46:16.227Z,4.03
2018-06-18T17:48:43.361Z,4.83
2018-06-18T17:51:10.562Z,4.60
2018-06-18T17:53:37.710Z,4.83
2018-06-18T17:56:04.860Z,4.60
2018-06-18T18:15:15.930Z,4.80
2018-06-18T18:17:43.039Z,5.00
2018-06-18T18:20:10.213Z,4.20
2018-06-18T18:22:37.452Z,4.30
2018-06-18T18:25:04.792Z,4.63
2018-06-18T18:27:32.463Z,4.87
2018-06-18T18:29:59.643Z,5.67
2018-06-18T18:32:26.787Z,4.97
2018-06-18T18:34:53.907Z,4.50
2018-06-18T18:37:20.998Z,4.80
2018-06-18T18:39:48.027Z,4.70
2018-06-18T18:42:15.244Z,4.27
2018-06-18T18:44:42.314Z,4.47
2018-06-18T18:47:09.468Z,4.40
2018-06-18T18:49:36.649Z,4.20
2018-06-18T18:52:03.793Z,4.70
2018-06-18T18:56:14.398Z,4.50
2018-06-18T18:59:45.145Z,6.17
2018-06-18T19:02:12.266Z,5.17
2018-06-18T19:04:46.502Z,4.57
2018-06-18T19:07:14.559Z,4.83
2018-06-18T19:10:25.057Z,4.30
2018-06-18T19:12:54.404Z,4.93
2018-06-18T19:15:23.292Z,5.03
2018-06-18T19:17:50.692Z,4.37
2018-06-18T19:20:23.744Z,5.37
2018-06-18T19:22:50.889Z,4.60
2018-06-18T19:25:18.041Z,4.80
2018-06-18T19:27:45.221Z,4.30
2018-06-18T19:30:12.268Z,4.90
2018-06-18T19:32:40.307Z,4.43
2018-06-18T19:35:07.378Z,4.93
2018-06-18T19:37:34.792Z,5.07
2018-06-18T19:40:02.293Z,4.83
2018-06-18T19:42:29.462Z,4.40
2018-06-18T19:44:57.188Z,4.90
2018-06-18T19:47:31.456Z,4.60
2018-06-18T19:49:58.560Z,5.03
2018-06-18T19:52:26.164Z,4.23
2018-06-18T19:55:03.449Z,5.60
2018-06-18T19:57:31.100Z,5.50
2018-06-18T19:59:59.314Z,4.87
2018-06-18T20:02:26.612Z,5.33
2018-06-18T20:04:55.168Z,5.27
2018-06-18T20:07:23.499Z,5.00
2018-06-18T20:09:50.736Z,5.20
2018-06-18T20:12:18.351Z,4.77
2018-06-18T20:14:45.873Z,5.03
2018-06-18T20:17:12.973Z,4.97
2018-06-18T20:19:40.724Z,5.13
2018-06-18T20:22:07.846Z,4.87
2018-06-18T20:24:36.648Z,4.93
2018-06-18T20:27:04.227Z,4.77
2018-06-18T20:29:31.432Z,5.13
2018-06-18T20:31:59.315Z,5.03
2018-06-18T20:34:26.730Z,5.70
2018-06-18T20:36:54.189Z,5.30
2018-06-18T20:39:21.396Z,5.03
2018-06-18T20:41:48.521Z,5.70
2018-06-18T20:44:17.548Z,5.10
2018-06-18T20:46:45.989Z,5.07
2018-06-18T20:49:13.938Z,5.00
2018-06-18T20:51:41.424Z,4.90
2018-06-18T20:54:09.544Z,4.73
2018-06-18T20:56:37.981Z,5.50
2018-06-18T20:59:06.556Z,5.33
2018-06-18T21:01:33.762Z,5.57
2018-06-18T21:04:00.960Z,5.63
2018-06-18T21:06:28.578Z,5.23
2018-06-18T21:08:55.964Z,5.00
2018-06-18T21:11:23.294Z,5.80
2018-06-18T21:13:50.584Z,5.10
2018-06-18T21:16:18.343Z,5.10
2018-06-18T21:18:45.870Z,5.30
2018-06-18T21:21:13.329Z,5.07
2018-06-18T21:23:41.880Z,4.83
2018-06-18T21:26:09.492Z,5.03
2018-06-18T21:28:36.700Z,4.67
2018-06-18T21:31:03.916Z,5.27
2018-06-18T21:33:31.310Z,5.00
2018-06-18T21:35:58.448Z,5.47
2018-06-18T21:38:25.905Z,4.90
2018-06-18T21:40:54.136Z,5.70
2018-06-18T21:43:21.327Z,4.60
2018-06-18T21:45:48.455Z,5.80
2018-06-18T21:48:15.673Z,5.37
2018-06-18T21:50:42.857Z,5.37
2018-06-18T21:53:10.028Z,5.23
2018-06-18T21:55:37.204Z,5.43
2018-06-18T21:58:04.932Z,4.90
2018-06-18T22:00:40.625Z,5.20
2018-06-18T22:03:08.657Z,5.43
2018-06-18T22:05:37.667Z,5.60
2018-06-18T22:08:06.929Z,5.50
2018-06-18T22:10:34.867Z,4.47
2018-06-18T22:13:02.176Z,5.40
2018-06-18T22:15:30.756Z,8.37
2018-06-18T22:17:58.059Z,5.00
2018-06-18T22:20:26.159Z,6.83
2018-06-18T22:22:53.745Z,5.77
2018-06-18T22:25:21.145Z,5.47
2018-06-18T22:27:48.489Z,5.60
2018-06-18T22:30:15.671Z,5.67
2018-06-18T22:32:42.898Z,5.03
2018-06-18T22:35:10.229Z,5.57
2018-06-18T22:37:38.251Z,6.10
2018-06-18T22:40:05.575Z,5.73
2018-06-18T22:42:32.818Z,6.70
2018-06-18T22:45:00.027Z,5.90
2018-06-18T22:47:27.169Z,6.00
2018-06-18T22:49:54.350Z,5.80
2018-06-18T22:52:22.478Z,7.10
2018-06-18T22:54:50.464Z,6.50
2018-06-18T22:57:17.664Z,6.50
2018-06-18T22:59:45.568Z,6.00
2018-06-18T23:02:15.948Z,5.77
2018-06-18T23:04:43.150Z,6.40
2018-06-18T23:07:10.293Z,5.70
2018-06-18T23:09:37.412Z,5.80
2018-06-18T23:12:04.853Z,5.20
2018-06-18T23:14:32.506Z,5.80
2018-06-18T23:16:59.771Z,6.10
2018-06-18T23:19:27.062Z,5.77
2018-06-18T23:21:54.286Z,5.43
2018-06-18T23:24:21.440Z,6.60
2018-06-18T23:26:50.148Z,6.40
2018-06-18T23:29:18.744Z,5.80
2018-06-18T23:31:45.933Z,5.73
2018-06-18T23:34:13.122Z,5.60
2018-06-18T23:36:40.285Z,5.50
2018-06-18T23:39:08.650Z,5.90
2018-06-18T23:41:39.179Z,5.77
2018-06-18T23:44:06.387Z,6.87
2018-06-18T23:46:33.644Z,6.67
2018-06-18T23:49:00.775Z,6.27
2018-06-18T23:51:27.994Z,6.20
2018-06-18T23:53:55.305Z,5.63
2018-06-18T23:56:22.417Z,6.00
2018-06-18T23:58:49.584Z,5.83
